Time;durP1;ratioP1;P1;durP2;ratioP2;P2;SDS_P1;SDS_P2;PMS_P1;PMS_P2;Temp;Humidity;BMP_temperature;BMP_pressure;BME280_temperature;BME280_humidity;BME280_pressure;Samples;Min_cycle;Max_cycle;Signal;HPM_P1;HPM_P2
2022/04/27 00:01:11;;;;;;;;;;;;;;;20.17;41.12;101502.91;5112396;27;2186;-58
2022/04/27 00:03:37;;;;;;;;;;;;;;;20.16;41.09;101498.53;5125331;27;2179;-57
2022/04/27 00:06:04;;;;;;;;;;;;;;;20.17;41.21;101491.41;5121597;27;2417;-58
2022/04/27 00:08:31;;;;;;;;;;;;;;;20.16;41.14;101493.53;5123318;27;2146;-58
2022/04/27 00:10:57;;;;;;;;;;;;;;;20.15;41.16;101500.66;5121032;27;2187;-58
2022/04/27 00:13:23;;;;;;;;;;;;;;;20.15;41.13;101497.78;5118118;27;2409;-58
2022/04/27 00:15:50;;;;;;;;;;;;;;;20.14;41.12;101498.44;5121707;27;2241;-58
2022/04/27 00:18:16;;;;;;;;;;;;;;;20.15;41.19;101499.91;5119185;27;2155;-58
2022/04/27 00:20:43;;;;;;;;;;;;;;;20.14;41.15;101501.31;5120569;27;2120;-58
2022/04/27 00:23:09;;;;;;;;;;;;;;;20.15;41.15;101511.41;5122984;27;2131;-58
2022/04/27 00:25:36;;;;;;;;;;;;;;;20.14;41.12;101504.19;5119506;27;2139;-58
2022/04/27 00:28:03;;;;;;;;;;;;;;;20.14;41.20;101504.19;5118862;27;2167;-58
2022/04/27 00:30:30;;;;;;;;;;;;;;;20.14;41.10;101507.06;5116497;27;2284;-58
2022/04/27 00:32:56;;;;;;;;;;;;;;;20.14;40.93;101504.19;5114717;27;2257;-58
2022/04/27 00:35:23;;;;;;;;;;;;;;;20.12;41.13;101506.94;5096473;27;2224;-58
2022/04/27 00:37:49;;;;;;;;;;;;;;;20.13;41.15;101508.41;5106676;27;2198;-58
2022/04/27 00:40:15;;;;;;;;;;;;;;;20.13;41.13;101505.53;5113979;27;2348;-58
2022/04/27 00:42:43;;;;;;;;;;;;;;;20.12;41.10;101506.94;5107360;27;2400;-58
2022/04/27 00:45:10;;;;;;;;;;;;;;;20.11;41.16;101517.66;5095501;27;2185;-58
2022/04/27 00:47:36;;;;;;;;;;;;;;;20.11;41.12;101516.91;5101524;27;2305;-58
2022/04/27 00:50:03;;;;;;;;;;;;;;;20.11;41.10;101520.53;5108714;27;2182;-58
2022/04/27 00:52:30;;;;;;;;;;;;;;;20.12;41.15;101527.06;5117220;27;2127;-58
2022/04/27 00:54:57;;;;;;;;;;;;;;;20.11;41.08;101529.16;5118365;27;2183;-58
2022/04/27 00:57:23;;;;;;;;;;;;;;;20.10;41.19;101524.81;5117228;27;2348;-59
2022/04/27 00:59:50;;;;;;;;;;;;;;;20.09;41.18;101532.69;5100502;27;2276;-58
2022/04/27 01:02:16;;;;;;;;;;;;;;;20.08;41.21;101534.06;5098910;28;2265;-58
2022/04/27 01:04:43;;;;;;;;;;;;;;;20.07;41.07;101523.94;5098186;28;2378;-58
2022/04/27 01:07:11;;;;;;;;;;;;;;;20.08;41.13;101530.44;5108352;28;2037;-58
2022/04/27 01:09:38;;;;;;;;;;;;;;;20.08;41.14;101534.06;5101265;28;2192;-58
2022/04/27 01:12:04;;;;;;;;;;;;;;;20.06;41.12;101531.06;5117301;28;2305;-58
2022/04/27 01:14:41;;;;;;;;;;;;;;;20.06;41.11;101528.19;5099145;28;2310;-58
2022/04/27 01:17:14;;;;;;;;;;;;;;;20.06;41.14;101533.19;5102768;28;2565;-58
2022/04/27 01:19:40;;;;;;;;;;;;;;;20.06;41.09;101525.31;5096292;28;2155;-58
2022/04/27 01:22:07;;;;;;;;;;;;;;;20.06;41.28;101538.94;5095859;28;2286;-58
2022/04/27 01:24:40;;;;;;;;;;;;;;;20.06;41.10;101547.56;5100858;27;2205;-58
2022/04/27 01:27:07;;;;;;;;;;;;;;;20.06;41.07;101547.56;5109795;27;2258;-57
2022/04/27 01:29:33;;;;;;;;;;;;;;;20.05;41.15;101549.69;5103478;27;2341;-58
2022/04/27 01:32:00;;;;;;;;;;;;;;;20.05;41.07;101546.09;5105859;27;2587;-58
2022/04/27 01:34:27;;;;;;;;;;;;;;;20.03;41.14;101552.44;5105779;27;2145;-58
2022/04/27 01:36:54;;;;;;;;;;;;;;;20.03;41.10;101558.19;5101947;27;2202;-58
2022/04/27 01:39:24;;;;;;;;;;;;;;;20.05;41.07;101555.44;5106460;27;2216;-58
2022/04/27 01:41:50;;;;;;;;;;;;;;;20.02;41.11;101556.72;5106134;27;2800;-58
2022/04/27 01:44:18;;;;;;;;;;;;;;;20.04;41.07;101542.47;5110467;27;2105;-58
2022/04/27 01:46:44;;;;;;;;;;;;;;;20.03;41.05;101552.44;5122782;27;2305;-58
2022/04/27 01:49:11;;;;;;;;;;;;;;;20.02;41.10;101555.94;5124355;27;2249;-58
2022/04/27 01:54:22;;;;;;;;;;;;;;;20.02;41.09;101562.47;5099736;27;2347;-58
2022/04/27 01:56:49;;;;;;;;;;;;;;;20.01;41.13;101563.84;5096802;27;2343;-58
2022/04/27 01:59:16;;;;;;;;;;;;;;;20.00;41.09;101562.34;5091626;27;2200;-58
2022/04/27 02:01:43;;;;;;;;;;;;;;;19.99;41.18;101563.72;5090163;27;2235;-58
2022/04/27 02:04:13;;;;;;;;;;;;;;;20.00;40.97;101570.22;5113845;27;2463;-58
2022/04/27 02:06:40;;;;;;;;;;;;;;;20.00;41.08;101582.47;5094167;27;2192;-58
2022/04/27 02:09:11;;;;;;;;;;;;;;;19.98;41.14;101579.47;5109155;27;2391;-58
2022/04/27 02:11:43;;;;;;;;;;;;;;;19.98;41.07;101562.22;5091390;27;2266;-58
2022/04/27 02:14:10;;;;;;;;;;;;;;;19.98;41.10;101570.09;5107104;27;2467;-59
2022/04/27 02:16:38;;;;;;;;;;;;;;;19.98;41.09;101573.72;5092605;27;2207;-58
2022/04/27 02:19:10;;;;;;;;;;;;;;;19.99;41.07;101583.09;5116220;27;2160;-58
2022/04/27 02:21:37;;;;;;;;;;;;;;;19.97;41.10;101582.97;5110616;27;2248;-58
2022/04/27 02:24:03;;;;;;;;;;;;;;;19.97;41.07;101577.97;5105471;27;2255;-58
2022/04/27 02:26:29;;;;;;;;;;;;;;;19.97;41.18;101583.72;5107405;27;2218;-58
2022/04/27 02:28:57;;;;;;;;;;;;;;;19.97;40.98;101589.44;5110159;27;2174;-58
2022/04/27 02:31:24;;;;;;;;;;;;;;;19.97;41.08;101580.84;5106707;27;2139;-58
2022/04/27 02:33:51;;;;;;;;;;;;;;;19.96;41.03;101587.97;5084426;27;2469;-58
2022/04/27 02:36:17;;;;;;;;;;;;;;;19.97;40.98;101589.44;5093731;27;2191;-58
2022/04/27 02:38:44;;;;;;;;;;;;;;;19.96;41.15;101587.97;5111649;27;2313;-58
2022/04/27 02:41:11;;;;;;;;;;;;;;;19.96;40.99;101590.84;5086301;27;2264;-57
2022/04/27 02:43:38;;;;;;;;;;;;;;;19.95;41.07;101591.47;5115855;27;2589;-58
2022/04/27 02:46:07;;;;;;;;;;;;;;;19.95;41.17;101592.22;5100162;27;2706;-58
2022/04/27 02:48:34;;;;;;;;;;;;;;;19.95;41.05;101600.84;5101505;27;2844;-57
2022/04/27 02:53:47;;;;;;;;;;;;;;;19.96;41.16;101596.59;5088206;27;2675;-58
2022/04/27 02:56:13;;;;;;;;;;;;;;;19.97;41.03;101595.22;5101926;27;2167;-58
2022/04/27 02:58:40;;;;;;;;;;;;;;;19.98;40.94;101602.47;5108383;27;2365;-58
2022/04/27 03:01:07;;;;;;;;;;;;;;;19.99;40.92;101603.22;5105965;27;2219;-58
2022/04/27 03:03:34;;;;;;;;;;;;;;;20.00;40.83;101605.47;5118321;27;2251;-57
2022/04/27 03:06:01;;;;;;;;;;;;;;;20.02;41.03;101608.47;5101987;27;2265;-58
2022/04/27 03:08:27;;;;;;;;;;;;;;;20.01;40.97;101604.06;5095310;27;2226;-58
2022/04/27 03:10:53;;;;;;;;;;;;;;;20.01;41.00;101595.44;5113324;27;2401;-58
2022/04/27 03:13:26;;;;;;;;;;;;;;;20.03;41.04;101606.34;5106773;27;2360;-58
2022/04/27 03:16:05;;;;;;;;;;;;;;;20.03;40.99;101614.97;5105435;27;2191;-58
2022/04/27 03:18:32;;;;;;;;;;;;;;;20.04;41.08;101617.22;5104093;27;2445;-58
2022/04/27 03:20:58;;;;;;;;;;;;;;;20.03;41.11;101609.22;5103069;27;2259;-58
2022/04/27 03:23:24;;;;;;;;;;;;;;;20.05;41.07;101621.56;5125116;27;2275;-58
2022/04/27 03:25:54;;;;;;;;;;;;;;;20.06;41.17;101620.19;5101106;27;2094;-57
2022/04/27 03:28:21;;;;;;;;;;;;;;;20.09;41.08;101618.94;5117682;27;2345;-58
2022/04/27 03:30:49;;;;;;;;;;;;;;;20.08;41.10;101623.19;5097847;27;2544;-58
2022/04/27 03:33:25;;;;;;;;;;;;;;;20.11;41.19;101626.94;5096734;27;2352;-58
2022/04/27 03:35:52;;;;;;;;;;;;;;;20.11;41.26;101631.94;5102640;27;2406;-58
2022/04/27 03:38:18;;;;;;;;;;;;;;;20.12;41.35;101642.06;5105145;27;2191;-58
2022/04/27 03:40:48;;;;;;;;;;;;;;;20.11;41.32;101637.69;5118734;27;2309;-58
2022/04/27 03:43:15;;;;;;;;;;;;;;;20.07;41.26;101638.94;5122536;27;2103;-58
2022/04/27 03:45:43;;;;;;;;;;;;;;;20.08;41.23;101640.44;5123953;27;2238;-58
2022/04/27 03:48:10;;;;;;;;;;;;;;;20.07;41.31;101641.81;5108418;27;2236;-58
2022/04/27 03:50:36;;;;;;;;;;;;;;;20.08;41.35;101651.19;5100854;27;2539;-58
2022/04/27 03:53:02;;;;;;;;;;;;;;;20.08;41.34;101654.81;5091715;27;2156;-58
2022/04/27 03:55:33;;;;;;;;;;;;;;;20.11;41.33;101646.31;5092965;27;2228;-58
2022/04/27 03:58:01;;;;;;;;;;;;;;;20.13;41.25;101660.81;5093540;27;2161;-58
2022/04/27 04:00:28;;;;;;;;;;;;;;;20.14;41.27;101653.69;5094966;27;2017;-58
2022/04/27 04:03:04;;;;;;;;;;;;;;;20.16;41.34;101656.69;5088026;27;2301;-58
2022/04/27 04:05:32;;;;;;;;;;;;;;;20.16;41.59;101656.69;5091660;27;2214;-58
2022/04/27 04:07:58;;;;;;;;;;;;;;;20.16;41.52;101660.31;5111639;27;2442;-58
2022/04/27 04:10:24;;;;;;;;;;;;;;;20.16;41.61;101671.06;5108502;27;2223;-58
2022/04/27 04:12:51;;;;;;;;;;;;;;;20.17;41.60;101672.56;5087465;27;2198;-58
2022/04/27 04:15:29;;;;;;;;;;;;;;;20.15;41.60;101673.19;5101984;27;2436;-57
2022/04/27 04:18:14;;;;;;;;;;;;;;;20.18;41.64;101680.56;5105484;27;2259;-58
2022/04/27 04:20:53;;;;;;;;;;;;;;;20.15;41.52;101683.94;5087059;27;2168;-58
2022/04/27 04:23:25;;;;;;;;;;;;;;;20.16;41.62;101689.06;5095664;27;2252;-58
2022/04/27 04:28:45;;;;;;;;;;;;;;;20.17;41.50;101698.44;5083040;27;2235;-58
2022/04/27 04:31:11;;;;;;;;;;;;;;;20.18;41.50;101688.44;5088624;27;2172;-58
2022/04/27 04:33:45;;;;;;;;;;;;;;;20.21;41.68;101690.06;5091449;27;2568;-58
2022/04/27 04:36:12;;;;;;;;;;;;;;;20.22;41.65;101688.69;5102323;27;2647;-58
2022/04/27 04:38:41;;;;;;;;;;;;;;;20.22;41.71;101700.19;5088134;27;2168;-58
2022/04/27 04:41:09;;;;;;;;;;;;;;;20.22;41.81;101694.44;5100717;27;2325;-58
2022/04/27 04:43:39;;;;;;;;;;;;;;;20.21;41.70;101710.94;5106114;27;2211;-58
2022/04/27 04:46:06;;;;;;;;;;;;;;;20.21;41.62;101704.44;5095488;27;2097;-58
2022/04/27 04:48:46;;;;;;;;;;;;;;;20.20;41.68;101709.47;5099113;27;2168;-58
2022/04/27 04:51:31;;;;;;;;;;;;;;;20.20;41.63;101720.97;5115404;27;2309;-59
2022/04/27 04:54:20;;;;;;;;;;;;;;;20.19;41.69;101710.06;5109775;27;2190;-60
2022/04/27 04:56:56;;;;;;;;;;;;;;;20.18;41.69;101712.22;5082384;28;2330;-57
2022/04/27 04:59:42;;;;;;;;;;;;;;;20.19;41.48;101724.47;5075326;27;2270;-58
2022/04/27 05:02:17;;;;;;;;;;;;;;;20.20;41.66;101731.69;5106629;27;2651;-58
2022/04/27 05:04:55;;;;;;;;;;;;;;;20.22;41.73;101740.44;5110976;28;2202;-60
2022/04/27 05:07:40;;;;;;;;;;;;;;;20.20;42.04;101731.69;5119420;28;2292;-60
2022/04/27 05:10:38;;;;;;;;;;;;;;;20.21;41.94;101745.47;5104045;28;2192;-61
2022/04/27 05:13:10;;;;;;;;;;;;;;;20.15;41.84;101750.09;5105056;28;2381;-62
2022/04/27 05:15:49;;;;;;;;;;;;;;;20.11;41.28;101746.94;5102891;28;2542;-61
2022/04/27 05:18:38;;;;;;;;;;;;;;;20.14;41.14;101751.47;5113628;28;2708;-60
2022/04/27 05:21:33;;;;;;;;;;;;;;;20.09;41.28;101762.72;5095115;28;2957;-59
2022/04/27 05:24:26;;;;;;;;;;;;;;;19.95;40.37;101766.81;5098376;28;2525;-60
2022/04/27 05:27:11;;;;;;;;;;;;;;;19.90;39.47;101767.94;5113234;28;2693;-60
2022/04/27 05:32:52;;;;;;;;;;;;;;;19.80;38.13;101776.69;5113394;27;2354;-61
2022/04/27 05:35:24;;;;;;;;;;;;;;;19.76;37.81;101776.44;5122263;28;2600;-61
2022/04/27 05:38:06;;;;;;;;;;;;;;;19.81;37.69;101778.94;5121066;28;2803;-61
2022/04/27 05:41:01;;;;;;;;;;;;;;;19.90;38.75;101785.94;5071544;28;2461;-61
2022/04/27 05:43:43;;;;;;;;;;;;;;;19.94;38.97;101789.06;5086844;28;2679;-61
2022/04/27 05:46:36;;;;;;;;;;;;;;;19.97;39.37;101790.69;5106117;28;3006;-61
2022/04/27 05:49:22;;;;;;;;;;;;;;;20.01;39.70;101785.19;5095267;28;3435;-60
2022/04/27 05:51:54;;;;;;;;;;;;;;;19.98;39.69;101779.97;5098990;28;2664;-64
2022/04/27 05:54:31;;;;;;;;;;;;;;;19.97;39.31;101787.81;5094010;28;2798;-60
2022/04/27 05:57:16;;;;;;;;;;;;;;;19.89;38.68;101793.06;5096780;28;2847;-62
2022/04/27 06:00:01;;;;;;;;;;;;;;;19.93;39.02;101796.22;5109983;28;2700;-57
2022/04/27 06:02:47;;;;;;;;;;;;;;;20.01;39.56;101798.84;5099639;28;2697;-63
2022/04/27 06:05:19;;;;;;;;;;;;;;;20.07;39.63;101799.97;5111987;28;4106;-63
2022/04/27 06:07:46;;;;;;;;;;;;;;;20.14;39.67;101806.84;5096235;28;2701;-63
2022/04/27 06:10:17;;;;;;;;;;;;;;;20.21;39.70;101808.00;5118100;27;2761;-63
2022/04/27 06:12:47;;;;;;;;;;;;;;;20.24;39.69;101809.59;5106498;27;2611;-63
2022/04/27 06:15:39;;;;;;;;;;;;;;;20.29;39.69;101809.25;5109961;27;2530;-62
2022/04/27 06:18:15;;;;;;;;;;;;;;;20.35;39.67;101817.47;5105040;27;2670;-62
2022/04/27 06:20:42;;;;;;;;;;;;;;;20.38;39.96;101821.97;5120741;27;2666;-62
2022/04/27 06:23:14;;;;;;;;;;;;;;;20.42;40.41;101822.22;5108417;27;2910;-63
2022/04/27 06:25:41;;;;;;;;;;;;;;;20.42;40.33;101821.50;5105242;27;2926;-63
2022/04/27 06:28:09;;;;;;;;;;;;;;;20.39;39.94;101812.00;5100335;27;2639;-62
2022/04/27 06:30:37;;;;;;;;;;;;;;;20.42;40.01;101822.22;5103091;27;2612;-62
2022/04/27 06:33:03;;;;;;;;;;;;;;;20.35;40.62;101817.47;5096281;27;2929;-64
2022/04/27 06:35:30;;;;;;;;;;;;;;;20.52;40.16;101822.09;5094621;27;2735;-63
2022/04/27 06:38:04;;;;;;;;;;;;;;;20.55;40.30;101820.88;5103415;27;2881;-64
2022/04/27 06:40:53;;;;;;;;;;;;;;;20.37;39.78;101832.00;5106061;27;2766;-62
2022/04/27 06:43:42;;;;;;;;;;;;;;;20.28;39.36;101827.13;5127036;27;1621;-62
2022/04/27 06:46:27;;;;;;;;;;;;;;;20.39;40.15;101822.75;5123915;27;3398;-62
2022/04/27 06:49:12;;;;;;;;;;;;;;;20.42;40.21;101825.13;5122779;27;2632;-62
2022/04/27 06:51:57;;;;;;;;;;;;;;;20.45;40.24;101825.97;5122768;27;2703;-62
2022/04/27 06:54:42;;;;;;;;;;;;;;;20.48;40.28;101830.50;5125641;27;2663;-63
2022/04/27 06:57:27;;;;;;;;;;;;;;;20.48;40.30;101828.38;5126255;27;2604;-62
2022/04/27 07:00:01;;;;;;;;;;;;;;;20.48;40.42;101831.25;5110794;27;1858;-62
2022/04/27 07:02:28;;;;;;;;;;;;;;;20.48;40.49;101828.38;5126523;27;2617;-63
2022/04/27 07:04:59;;;;;;;;;;;;;;;20.47;40.64;101832.59;5127449;27;1804;-62
2022/04/27 07:07:26;;;;;;;;;;;;;;;20.48;40.69;101830.50;5103791;27;1801;-62
2022/04/27 07:09:53;;;;;;;;;;;;;;;20.47;40.81;101835.47;5125826;27;2668;-62
2022/04/27 07:12:20;;;;;;;;;;;;;;;20.49;40.82;101844.25;5126771;27;2608;-62
2022/04/27 07:14:46;;;;;;;;;;;;;;;20.49;40.85;101850.00;5128070;27;1601;-62
2022/04/27 07:17:12;;;;;;;;;;;;;;;20.51;41.07;101840.75;5128572;27;1577;-62
2022/04/27 07:19:39;;;;;;;;;;;;;;;20.49;41.13;101850.00;5118533;27;3490;-62
2022/04/27 07:22:06;;;;;;;;;;;;;;;20.50;41.14;101851.53;5122585;27;2736;-62
2022/04/27 07:24:32;;;;;;;;;;;;;;;20.49;41.22;101855.75;5123991;27;3103;-62
2022/04/27 07:26:59;;;;;;;;;;;;;;;20.49;41.29;101861.50;5123764;27;2636;-62
2022/04/27 07:29:25;;;;;;;;;;;;;;;20.49;41.33;101864.38;5122267;27;2683;-63
2022/04/27 07:31:51;;;;;;;;;;;;;;;20.44;41.16;101865.53;5116597;27;2628;-64
2022/04/27 07:34:18;;;;;;;;;;;;;;;20.34;40.05;101875.63;5121990;27;2671;-64
2022/04/27 07:36:44;;;;;;;;;;;;;;;20.21;38.53;101871.25;5117059;27;2985;-63
2022/04/27 07:39:10;;;;;;;;;;;;;;;20.17;38.05;101871.00;5122039;27;2582;-63
2022/04/27 07:41:37;;;;;;;;;;;;;;;20.14;37.84;101872.25;5118811;27;2674;-63
2022/04/27 07:44:03;;;;;;;;;;;;;;;20.06;37.35;101867.47;5122514;27;2663;-63
2022/04/27 07:46:30;;;;;;;;;;;;;;;19.97;37.26;101873.31;5120541;27;2719;-62
2022/04/27 07:48:56;;;;;;;;;;;;;;;19.99;37.06;101874.19;5109227;27;2758;-62
2022/04/27 07:51:22;;;;;;;;;;;;;;;19.96;36.78;101875.44;5114160;27;3078;-62
2022/04/27 07:53:49;;;;;;;;;;;;;;;19.89;37.02;101876.44;5112680;27;2942;-62
2022/04/27 07:56:15;;;;;;;;;;;;;;;19.90;36.64;101889.44;5108578;27;2906;-62
2022/04/27 07:58:42;;;;;;;;;;;;;;;19.88;36.43;101886.41;5121879;27;2943;-62
2022/04/27 08:01:08;;;;;;;;;;;;;;;19.85;36.39;101887.66;5118760;27;2647;-62
2022/04/27 08:03:35;;;;;;;;;;;;;;;19.80;36.43;101894.53;5123966;27;3113;-62
2022/04/27 08:06:03;;;;;;;;;;;;;;;19.79;36.21;101893.78;5121210;27;2662;-62
2022/04/27 08:08:29;;;;;;;;;;;;;;;19.76;35.97;101897.88;5124166;27;2930;-62
2022/04/27 08:10:55;;;;;;;;;;;;;;;19.74;36.09;101886.25;5105097;27;2864;-63
2022/04/27 08:13:22;;;;;;;;;;;;;;;19.75;35.77;101884.16;5114074;27;2849;-63
2022/04/27 08:15:48;;;;;;;;;;;;;;;19.70;35.72;101893.84;5119570;27;2756;-63
2022/04/27 08:18:15;;;;;;;;;;;;;;;19.72;35.61;101894.00;5122394;27;2747;-63
2022/04/27 08:23:29;;;;;;;;;;;;;;;19.67;36.02;101885.06;5114325;27;2610;-63
2022/04/27 08:25:56;;;;;;;;;;;;;;;19.67;36.08;101884.31;5123689;27;2564;-63
2022/04/27 08:28:23;;;;;;;;;;;;;;;19.66;35.75;101897.19;5115963;27;2706;-66
2022/04/27 08:30:49;;;;;;;;;;;;;;;19.70;36.03;101894.63;5090370;27;2784;-63
2022/04/27 08:33:16;;;;;;;;;;;;;;;19.82;36.38;101888.91;5105369;27;2806;-62
2022/04/27 08:35:42;;;;;;;;;;;;;;;19.84;36.43;101891.94;5120533;27;2483;-63
2022/04/27 08:38:12;;;;;;;;;;;;;;;19.82;36.80;101894.66;5117087;27;2860;-63
2022/04/27 08:40:38;;;;;;;;;;;;;;;19.77;36.35;101905.16;5119297;27;2777;-63
2022/04/27 08:43:05;;;;;;;;;;;;;;;19.83;36.82;101896.16;5122451;27;2509;-65
2022/04/27 08:45:33;;;;;;;;;;;;;;;19.95;37.51;101899.06;5116642;27;2634;-63
2022/04/27 08:47:59;;;;;;;;;;;;;;;19.99;37.55;101896.47;5119027;27;3606;-65
2022/04/27 08:50:26;;;;;;;;;;;;;;;20.00;38.00;101890.09;5121772;27;2945;-65
2022/04/27 08:52:52;;;;;;;;;;;;;;;20.04;38.08;101898.22;5121699;27;2713;-67
2022/04/27 08:55:19;;;;;;;;;;;;;;;20.02;38.48;101901.72;5117501;27;2850;-62
2022/04/27 08:57:45;;;;;;;;;;;;;;;20.05;38.30;101897.59;5114876;27;2895;-59
2022/04/27 09:00:13;;;;;;;;;;;;;;;20.03;38.48;101900.34;5117402;27;3137;-62
2022/04/27 09:02:39;;;;;;;;;;;;;;;20.07;38.69;101909.25;5121719;27;2764;-62
2022/04/27 09:05:15;;;;;;;;;;;;;;;20.07;38.93;101897.72;5125249;27;2344;-62
2022/04/27 09:07:42;;;;;;;;;;;;;;;20.09;38.88;101906.50;5125044;27;1712;-62
2022/04/27 09:10:12;;;;;;;;;;;;;;;20.11;38.79;101908.72;5125329;27;2487;-62
2022/04/27 09:12:49;;;;;;;;;;;;;;;20.15;38.79;101905.38;5124703;28;1910;-62
2022/04/27 09:15:15;;;;;;;;;;;;;;;20.17;38.85;101905.50;5126560;28;1831;-62
2022/04/27 09:23:24;;;;;;;;;;;;;;;20.20;39.19;101910.00;5125974;28;1772;-62
2022/04/27 09:25:51;;;;;;;;;;;;;;;20.18;39.28;101901.25;5127232;28;1832;-62
2022/04/27 09:28:33;;;;;;;;;;;;;;;20.20;39.46;101893.53;5127837;28;1610;-62
2022/04/27 09:31:00;;;;;;;;;;;;;;;20.21;39.49;101900.03;5123895;28;1905;-62
2022/04/27 09:33:33;;;;;;;;;;;;;;;20.24;39.50;101904.50;5122894;28;2637;-63
2022/04/27 09:36:00;;;;;;;;;;;;;;;20.07;36.79;101897.72;5126508;28;1854;-63
2022/04/27 09:38:26;;;;;;;;;;;;;;;19.98;35.55;101901.47;5101416;28;2625;-63
2022/04/27 09:40:54;;;;;;;;;;;;;;;19.90;34.02;101912.44;5123626;28;2639;-62
2022/04/27 09:43:40;;;;;;;;;;;;;;;19.87;33.48;101902.16;5123751;28;2945;-63
2022/04/27 09:46:14;;;;;;;;;;;;;;;19.83;32.92;101902.66;5125522;27;2490;-63
2022/04/27 09:48:41;;;;;;;;;;;;;;;19.81;32.24;101911.16;5128815;27;2612;-63
2022/04/27 09:51:12;;;;;;;;;;;;;;;19.80;31.86;101903.16;5127296;27;2659;-63
2022/04/27 09:53:40;;;;;;;;;;;;;;;19.79;31.79;101913.13;5127284;27;2730;-63
2022/04/27 09:56:07;;;;;;;;;;;;;;;19.79;31.65;101913.13;5124551;27;2907;-63
2022/04/27 09:58:34;;;;;;;;;;;;;;;19.76;31.67;101908.63;5107410;27;2612;-63
2022/04/27 10:01:02;;;;;;;;;;;;;;;19.77;31.15;101910.13;5107303;27;2643;-63
2022/04/27 10:03:29;;;;;;;;;;;;;;;19.75;31.17;101896.38;5123498;27;2692;-63
2022/04/27 10:05:55;;;;;;;;;;;;;;;19.75;30.90;101905.00;5107252;27;2643;-63
2022/04/27 10:08:22;;;;;;;;;;;;;;;19.75;30.54;101901.38;5124567;27;2604;-63
2022/04/27 10:10:48;;;;;;;;;;;;;;;19.75;30.54;101901.38;5125530;27;2690;-63
2022/04/27 10:13:15;;;;;;;;;;;;;;;19.76;30.98;101912.25;5128204;27;2568;-63
2022/04/27 10:15:42;;;;;;;;;;;;;;;19.74;31.08;101909.25;5129689;27;2691;-63
2022/04/27 10:18:09;;;;;;;;;;;;;;;19.75;31.01;101907.13;5110320;27;1589;-63
2022/04/27 10:20:36;;;;;;;;;;;;;;;19.72;30.94;101909.09;5126681;27;2577;-63
2022/04/27 10:23:21;;;;;;;;;;;;;;;19.74;30.87;101899.88;5128749;27;2689;-63
2022/04/27 10:26:06;;;;;;;;;;;;;;;19.76;31.05;101908.63;5128744;27;2861;-62
2022/04/27 10:28:34;;;;;;;;;;;;;;;19.81;32.85;101899.66;5127776;27;2648;-62
2022/04/27 10:31:03;;;;;;;;;;;;;;;19.86;33.78;101901.44;5126300;27;2582;-63
2022/04/27 10:33:42;;;;;;;;;;;;;;;19.90;33.73;101903.06;5126777;27;2674;-62
2022/04/27 10:36:27;;;;;;;;;;;;;;;19.91;33.98;101893.81;5128817;27;2471;-63
2022/04/27 10:39:12;;;;;;;;;;;;;;;19.94;33.96;101901.19;5126513;27;2540;-63
2022/04/27 10:41:41;;;;;;;;;;;;;;;19.95;33.86;101896.97;5123962;27;2706;-62
2022/04/27 10:44:08;;;;;;;;;;;;;;;19.97;33.85;101899.94;5127160;27;2950;-63
2022/04/27 10:46:35;;;;;;;;;;;;;;;19.99;33.99;101896.47;5128973;27;1792;-62
2022/04/27 10:49:02;;;;;;;;;;;;;;;19.99;33.92;101897.19;5124876;27;2620;-63
2022/04/27 10:51:46;;;;;;;;;;;;;;;20.01;34.04;101905.22;5111302;27;1973;-62
2022/04/27 10:54:18;;;;;;;;;;;;;;;20.02;34.16;101900.97;5107842;27;2635;-62
2022/04/27 10:56:44;;;;;;;;;;;;;;;20.01;34.28;101900.22;5106479;28;2544;-63
2022/04/27 10:59:31;;;;;;;;;;;;;;;20.02;34.37;101895.19;5126686;27;2609;-62
2022/04/27 11:01:57;;;;;;;;;;;;;;;20.05;34.50;101888.97;5122122;27;2695;-63
2022/04/27 11:04:24;;;;;;;;;;;;;;;20.06;34.59;101881.84;5129494;27;1791;-62
2022/04/27 11:07:09;;;;;;;;;;;;;;;20.08;34.74;101892.72;5107639;27;2552;-62
2022/04/27 11:09:54;;;;;;;;;;;;;;;20.09;34.81;101895.00;5109410;27;2330;-62
2022/04/27 11:12:20;;;;;;;;;;;;;;;20.09;35.04;101900.00;5125693;27;2695;-62
2022/04/27 11:14:47;;;;;;;;;;;;;;;20.11;35.07;101896.47;5124843;27;2492;-62
2022/04/27 11:17:25;;;;;;;;;;;;;;;20.11;35.16;101890.72;5109689;27;2588;-62
2022/04/27 11:19:52;;;;;;;;;;;;;;;20.13;35.14;101897.34;5129089;27;1600;-62
2022/04/27 11:22:19;;;;;;;;;;;;;;;20.15;35.27;101899.63;5126626;27;2663;-62
2022/04/27 11:24:53;;;;;;;;;;;;;;;20.15;35.41;101903.25;5126979;27;2514;-61
2022/04/27 11:27:23;;;;;;;;;;;;;;;20.16;35.37;101892.47;5128078;27;2667;-62
2022/04/27 11:29:50;;;;;;;;;;;;;;;20.17;35.56;101894.75;5123802;27;2641;-62
2022/04/27 11:32:17;;;;;;;;;;;;;;;20.16;35.65;101887.50;5108702;27;2505;-63
2022/04/27 11:34:46;;;;;;;;;;;;;;;20.18;35.74;101895.50;5126675;27;3064;-63
2022/04/27 11:37:15;;;;;;;;;;;;;;;20.18;35.80;101901.25;5124644;27;2739;-63
2022/04/27 11:39:41;;;;;;;;;;;;;;;20.19;35.80;101902.75;5123195;27;2690;-63
2022/04/27 11:42:09;;;;;;;;;;;;;;;20.19;35.92;101902.75;5123222;27;2694;-63
2022/04/27 11:44:36;;;;;;;;;;;;;;;20.18;35.69;101892.63;5124991;27;2746;-63
2022/04/27 11:47:03;;;;;;;;;;;;;;;20.20;36.08;101887.00;5106596;27;2587;-63
2022/04/27 11:49:35;;;;;;;;;;;;;;;20.20;36.12;101887.00;5125030;27;2802;-63
2022/04/27 11:52:02;;;;;;;;;;;;;;;20.21;36.57;101891.38;5110916;27;1898;-63
2022/04/27 11:54:29;;;;;;;;;;;;;;;20.22;36.93;101890.00;5124719;27;2641;-63
2022/04/27 11:57:00;;;;;;;;;;;;;;;20.24;37.40;101882.25;5125821;27;2501;-62
2022/04/27 11:59:45;;;;;;;;;;;;;;;20.27;37.60;101877.38;5127979;27;2499;-63
2022/04/27 12:02:11;;;;;;;;;;;;;;;20.26;37.85;101885.25;5124207;27;2414;-63
2022/04/27 12:04:38;;;;;;;;;;;;;;;20.27;37.92;101894.63;5128733;27;1656;-63
2022/04/27 12:07:14;;;;;;;;;;;;;;;20.27;37.96;101891.75;5125195;27;2561;-63
2022/04/27 12:09:40;;;;;;;;;;;;;;;20.26;38.21;101896.03;5126260;27;2516;-62
2022/04/27 12:12:11;;;;;;;;;;;;;;;20.29;38.41;101889.78;5122542;27;2688;-62
2022/04/27 12:14:38;;;;;;;;;;;;;;;20.25;38.56;101877.28;5106856;27;2052;-62
2022/04/27 12:17:06;;;;;;;;;;;;;;;20.24;38.66;101884.38;5128281;27;1787;-62
2022/04/27 12:19:33;;;;;;;;;;;;;;;20.25;38.45;101888.78;5124670;27;2636;-62
2022/04/27 12:22:13;;;;;;;;;;;;;;;20.28;38.33;101890.41;5127249;27;1745;-62
2022/04/27 12:24:45;;;;;;;;;;;;;;;20.29;38.51;101889.00;5125386;27;2505;-66
2022/04/27 12:27:21;;;;;;;;;;;;;;;20.27;38.63;101894.63;5125223;27;2517;-62
2022/04/27 12:29:47;;;;;;;;;;;;;;;20.29;38.71;101889.00;5126553;27;2560;-63
2022/04/27 12:32:14;;;;;;;;;;;;;;;20.29;38.70;101889.78;5122279;27;2484;-63
2022/04/27 12:37:32;;;;;;;;;;;;;;;20.29;38.65;101886.13;5126048;27;2636;-65
2022/04/27 12:40:13;;;;;;;;;;;;;;;20.33;38.65;101889.28;5125380;27;2631;-61
2022/04/27 12:43:20;;;;;;;;;;;;;;;20.30;38.66;101884.78;5122760;27;2711;-61
2022/04/27 12:46:04;;;;;;;;;;;;;;;20.31;38.46;101880.50;5039824;28;2613;-61
2022/04/27 12:48:31;;;;;;;;;;;;;;;20.31;38.72;101874.75;5030947;28;2855;-63
2022/04/27 12:51:01;;;;;;;;;;;;;;;20.34;38.35;101878.50;5086449;27;3687;-65
2022/04/27 12:53:27;;;;;;;;;;;;;;;20.36;38.30;101870.75;5114333;27;3028;-64
2022/04/27 12:56:03;;;;;;;;;;;;;;;20.36;38.26;101875.75;5112297;27;2854;-64
2022/04/27 12:58:30;;;;;;;;;;;;;;;20.36;38.14;101876.50;5118664;27;3166;-66
2022/04/27 13:00:57;;;;;;;;;;;;;;;20.33;37.98;101877.03;5122106;27;2766;-66
2022/04/27 13:03:23;;;;;;;;;;;;;;;20.30;38.11;101876.91;5126656;27;1591;-66
2022/04/27 13:05:52;;;;;;;;;;;;;;;20.34;38.06;101879.28;5117588;27;2721;-71
2022/04/27 13:08:19;;;;;;;;;;;;;;;20.33;37.13;101871.28;5119124;27;2739;-64
2022/04/27 13:13:30;;;;;;;;;;;;;;;20.32;37.97;101881.25;5119854;27;2744;-65
2022/04/27 13:15:57;;;;;;;;;;;;;;;20.36;37.83;101890.91;5120095;28;2628;-65
2022/04/27 13:18:23;;;;;;;;;;;;;;;20.36;37.77;101888.00;5112783;28;2681;-64
2022/04/27 13:20:50;;;;;;;;;;;;;;;20.38;37.85;101878.78;5112236;27;2710;-65
2022/04/27 13:23:17;;;;;;;;;;;;;;;20.36;38.08;101887.28;5124089;27;2724;-66
2022/04/27 13:25:43;;;;;;;;;;;;;;;20.33;38.23;101882.78;5116050;27;2884;-68
2022/04/27 13:28:10;;;;;;;;;;;;;;;20.35;38.47;101880.78;5106736;27;2609;-63
2022/04/27 13:30:36;;;;;;;;;;;;;;;20.40;38.54;101882.53;5113451;27;2685;-61